sensor_id;sensor_type;location;lat;lon;timestamp;temperature;humidity
20740;DHT22;10530;49.968;19.844;2022-08-21T00:02:48;18.80;99.90
20740;DHT22;10530;49.968;19.844;2022-08-21T00:07:52;18.90;99.90
20740;DHT22;10530;49.968;19.844;2022-08-21T00:12:55;19.00;99.90
20740;DHT22;10530;49.968;19.844;2022-08-21T00:17:59;19.00;99.90
20740;DHT22;10530;49.968;19.844;2022-08-21T00:23:02;19.10;99.90
20740;DHT22;10530;49.968;19.844;2022-08-21T00:28:05;19.00;99.90
20740;DHT22;10530;49.968;19.844;2022-08-21T00:33:09;18.90;99.90
20740;DHT22;10530;49.968;19.844;2022-08-21T00:38:12;19.00;99.90
20740;DHT22;10530;49.968;19.844;2022-08-21T00:43:18;18.80;99.90
20740;DHT22;10530;49.968;19.844;2022-08-21T00:48:22;18.80;99.90
20740;DHT22;10530;49.968;19.844;2022-08-21T00:53:26;18.80;99.90
20740;DHT22;10530;49.968;19.844;2022-08-21T00:58:31;18.70;99.90
20740;DHT22;10530;49.968;19.844;2022-08-21T01:03:35;18.70;99.90
20740;DHT22;10530;49.968;19.844;2022-08-21T01:08:39;18.70;99.90
20740;DHT22;10530;49.968;19.844;2022-08-21T01:13:48;18.70;99.90
20740;DHT22;10530;49.968;19.844;2022-08-21T01:18:51;18.60;99.90
20740;DHT22;10530;49.968;19.844;2022-08-21T01:23:56;18.60;99.90
20740;DHT22;10530;49.968;19.844;2022-08-21T01:29:11;18.60;99.90
20740;DHT22;10530;49.968;19.844;2022-08-21T01:34:14;18.60;99.90
20740;DHT22;10530;49.968;19.844;2022-08-21T01:39:18;18.70;99.90
20740;DHT22;10530;49.968;19.844;2022-08-21T01:44:22;18.80;99.90
20740;DHT22;10530;49.968;19.844;2022-08-21T01:49:25;18.80;99.90
20740;DHT22;10530;49.968;19.844;2022-08-21T01:54:28;18.80;99.90
20740;DHT22;10530;49.968;19.844;2022-08-21T01:59:31;18.90;99.90
20740;DHT22;10530;49.968;19.844;2022-08-21T02:04:35;18.80;99.90
20740;DHT22;10530;49.968;19.844;2022-08-21T02:09:37;18.80;99.90
20740;DHT22;10530;49.968;19.844;2022-08-21T02:14:41;18.90;99.90
20740;DHT22;10530;49.968;19.844;2022-08-21T02:19:44;18.90;99.90
20740;DHT22;10530;49.968;19.844;2022-08-21T02:24:47;19.00;99.90
20740;DHT22;10530;49.968;19.844;2022-08-21T02:29:57;19.00;99.90
20740;DHT22;10530;49.968;19.844;2022-08-21T02:34:59;19.00;99.90
20740;DHT22;10530;49.968;19.844;2022-08-21T02:40:03;19.10;99.90
20740;DHT22;10530;49.968;19.844;2022-08-21T02:45:07;19.00;99.90
20740;DHT22;10530;49.968;19.844;2022-08-21T02:50:10;19.00;99.90
20740;DHT22;10530;49.968;19.844;2022-08-21T02:55:12;19.10;99.90
20740;DHT22;10530;49.968;19.844;2022-08-21T03:00:16;19.10;99.90
20740;DHT22;10530;49.968;19.844;2022-08-21T03:05:19;19.20;99.90
20740;DHT22;10530;49.968;19.844;2022-08-21T03:10:22;19.20;99.90
20740;DHT22;10530;49.968;19.844;2022-08-21T03:15:26;19.20;99.90
20740;DHT22;10530;49.968;19.844;2022-08-21T03:20:29;19.20;99.90
20740;DHT22;10530;49.968;19.844;2022-08-21T03:25:34;19.20;99.90
20740;DHT22;10530;49.968;19.844;2022-08-21T03:30:44;19.20;99.90
20740;DHT22;10530;49.968;19.844;2022-08-21T03:35:57;19.20;99.90
20740;DHT22;10530;49.968;19.844;2022-08-21T03:41:00;19.20;99.90
20740;DHT22;10530;49.968;19.844;2022-08-21T03:46:06;19.20;99.90
20740;DHT22;10530;49.968;19.844;2022-08-21T03:51:09;19.30;99.90
20740;DHT22;10530;49.968;19.844;2022-08-21T03:56:11;19.20;99.90
20740;DHT22;10530;49.968;19.844;2022-08-21T04:01:14;19.30;99.90
20740;DHT22;10530;49.968;19.844;2022-08-21T04:06:17;19.40;99.90
20740;DHT22;10530;49.968;19.844;2022-08-21T04:11:20;19.40;99.90
20740;DHT22;10530;49.968;19.844;2022-08-21T04:16:23;19.40;99.90
20740;DHT22;10530;49.968;19.844;2022-08-21T04:21:25;19.50;99.90
20740;DHT22;10530;49.968;19.844;2022-08-21T04:26:28;19.50;99.90
20740;DHT22;10530;49.968;19.844;2022-08-21T04:31:35;19.50;99.90
20740;DHT22;10530;49.968;19.844;2022-08-21T04:36:39;19.60;99.90
20740;DHT22;10530;49.968;19.844;2022-08-21T04:41:41;19.60;99.90
20740;DHT22;10530;49.968;19.844;2022-08-21T04:46:44;19.70;99.90
20740;DHT22;10530;49.968;19.844;2022-08-21T04:51:47;19.70;99.90
20740;DHT22;10530;49.968;19.844;2022-08-21T04:56:55;19.80;99.90
20740;DHT22;10530;49.968;19.844;2022-08-21T05:02:00;19.90;99.90
20740;DHT22;10530;49.968;19.844;2022-08-21T05:07:06;20.00;99.90
20740;DHT22;10530;49.968;19.844;2022-08-21T05:12:09;20.00;99.90
20740;DHT22;10530;49.968;19.844;2022-08-21T05:17:13;20.20;99.90
20740;DHT22;10530;49.968;19.844;2022-08-21T05:22:20;20.30;99.90
20740;DHT22;10530;49.968;19.844;2022-08-21T05:27:23;20.30;99.90
20740;DHT22;10530;49.968;19.844;2022-08-21T05:32:28;20.30;99.90
20740;DHT22;10530;49.968;19.844;2022-08-21T05:37:31;20.30;99.90
20740;DHT22;10530;49.968;19.844;2022-08-21T05:42:34;20.40;99.90
20740;DHT22;10530;49.968;19.844;2022-08-21T05:47:37;20.40;99.90
20740;DHT22;10530;49.968;19.844;2022-08-21T05:52:40;20.60;99.90
20740;DHT22;10530;49.968;19.844;2022-08-21T05:57:43;20.80;99.90
20740;DHT22;10530;49.968;19.844;2022-08-21T06:02:46;21.00;99.90
20740;DHT22;10530;49.968;19.844;2022-08-21T06:07:49;21.20;99.90
20740;DHT22;10530;49.968;19.844;2022-08-21T06:12:55;21.30;99.90
20740;DHT22;10530;49.968;19.844;2022-08-21T06:17:57;21.30;99.90
20740;DHT22;10530;49.968;19.844;2022-08-21T06:23:01;21.40;99.90
20740;DHT22;10530;49.968;19.844;2022-08-21T06:28:06;21.40;99.90
20740;DHT22;10530;49.968;19.844;2022-08-21T06:33:09;21.40;99.90
20740;DHT22;10530;49.968;19.844;2022-08-21T06:38:12;21.50;99.90
20740;DHT22;10530;49.968;19.844;2022-08-21T06:43:16;21.50;99.90
20740;DHT22;10530;49.968;19.844;2022-08-21T06:48:19;21.70;99.90
20740;DHT22;10530;49.968;19.844;2022-08-21T06:53:22;21.80;99.90
20740;DHT22;10530;49.968;19.844;2022-08-21T06:58:25;21.90;99.90
20740;DHT22;10530;49.968;19.844;2022-08-21T07:03:37;21.70;99.90
20740;DHT22;10530;49.968;19.844;2022-08-21T07:08:40;21.60;99.90
20740;DHT22;10530;49.968;19.844;2022-08-21T07:13:43;21.60;99.90
20740;DHT22;10530;49.968;19.844;2022-08-21T07:18:46;21.80;99.90
20740;DHT22;10530;49.968;19.844;2022-08-21T07:23:51;21.70;99.90
20740;DHT22;10530;49.968;19.844;2022-08-21T07:28:54;21.80;99.90
20740;DHT22;10530;49.968;19.844;2022-08-21T07:33:57;21.90;99.90
20740;DHT22;10530;49.968;19.844;2022-08-21T07:39:00;22.00;99.90
20740;DHT22;10530;49.968;19.844;2022-08-21T07:44:03;22.00;99.90
20740;DHT22;10530;49.968;19.844;2022-08-21T07:49:07;21.90;99.90
20740;DHT22;10530;49.968;19.844;2022-08-21T07:54:10;21.90;99.90
20740;DHT22;10530;49.968;19.844;2022-08-21T07:59:18;21.70;99.90
20740;DHT22;10530;49.968;19.844;2022-08-21T08:04:21;21.70;99.90
20740;DHT22;10530;49.968;19.844;2022-08-21T08:09:27;21.70;99.90
20740;DHT22;10530;49.968;19.844;2022-08-21T08:14:30;22.00;99.90
20740;DHT22;10530;49.968;19.844;2022-08-21T08:19:33;22.30;99.90
20740;DHT22;10530;49.968;19.844;2022-08-21T08:24:38;22.40;99.90
20740;DHT22;10530;49.968;19.844;2022-08-21T08:29:41;22.20;99.90
20740;DHT22;10530;49.968;19.844;2022-08-21T08:34:44;22.10;99.90
20740;DHT22;10530;49.968;19.844;2022-08-21T08:39:49;22.10;99.90
20740;DHT22;10530;49.968;19.844;2022-08-21T08:45:03;22.10;99.90
20740;DHT22;10530;49.968;19.844;2022-08-21T08:55:28;22.30;99.90
20740;DHT22;10530;49.968;19.844;2022-08-21T09:00:34;22.60;99.90
20740;DHT22;10530;49.968;19.844;2022-08-21T09:05:47;22.90;99.90
20740;DHT22;10530;49.968;19.844;2022-08-21T09:16:24;22.90;99.90
20740;DHT22;10530;49.968;19.844;2022-08-21T09:22:00;22.90;99.90
20740;DHT22;10530;49.968;19.844;2022-08-21T09:27:17;23.00;99.90
20740;DHT22;10530;49.968;19.844;2022-08-21T09:32:23;23.10;99.90
20740;DHT22;10530;49.968;19.844;2022-08-21T09:37:54;23.10;99.90
20740;DHT22;10530;49.968;19.844;2022-08-21T09:48:20;23.60;99.90
20740;DHT22;10530;49.968;19.844;2022-08-21T09:53:29;23.70;99.90
20740;DHT22;10530;49.968;19.844;2022-08-21T09:58:38;24.30;99.90
20740;DHT22;10530;49.968;19.844;2022-08-21T10:03:42;24.90;99.90
20740;DHT22;10530;49.968;19.844;2022-08-21T10:08:45;24.80;99.90
20740;DHT22;10530;49.968;19.844;2022-08-21T10:14:37;25.10;99.90
20740;DHT22;10530;49.968;19.844;2022-08-21T10:19:57;24.90;99.90
20740;DHT22;10530;49.968;19.844;2022-08-21T10:25:09;24.70;99.90
20740;DHT22;10530;49.968;19.844;2022-08-21T10:30:23;23.40;99.90
20740;DHT22;10530;49.968;19.844;2022-08-21T10:35:32;21.90;99.90
20740;DHT22;10530;49.968;19.844;2022-08-21T10:40:47;21.30;99.90
20740;DHT22;10530;49.968;19.844;2022-08-21T10:52:17;20.40;99.90
20740;DHT22;10530;49.968;19.844;2022-08-21T10:56:54;20.00;99.90
20740;DHT22;10530;49.968;19.844;2022-08-21T11:02:03;20.30;99.90
20740;DHT22;10530;49.968;19.844;2022-08-21T11:07:35;20.10;99.90
20740;DHT22;10530;49.968;19.844;2022-08-21T11:17:56;20.00;99.90
20740;DHT22;10530;49.968;19.844;2022-08-21T11:23:21;19.80;99.90
20740;DHT22;10530;49.968;19.844;2022-08-21T11:28:50;20.00;99.90
20740;DHT22;10530;49.968;19.844;2022-08-21T11:39:06;20.40;99.90
20740;DHT22;10530;49.968;19.844;2022-08-21T11:44:29;21.00;99.90
20740;DHT22;10530;49.968;19.844;2022-08-21T11:55:40;21.60;99.90
20740;DHT22;10530;49.968;19.844;2022-08-21T12:00:51;21.40;99.90
20740;DHT22;10530;49.968;19.844;2022-08-21T12:06:01;21.10;99.90
20740;DHT22;10530;49.968;19.844;2022-08-21T12:11:25;20.90;99.90
20740;DHT22;10530;49.968;19.844;2022-08-21T12:16:36;20.80;99.90
20740;DHT22;10530;49.968;19.844;2022-08-21T12:21:49;21.00;99.90
20740;DHT22;10530;49.968;19.844;2022-08-21T12:26:58;21.40;99.90
20740;DHT22;10530;49.968;19.844;2022-08-21T12:42:44;21.20;99.90
20740;DHT22;10530;49.968;19.844;2022-08-21T12:48:23;21.10;99.90
20740;DHT22;10530;49.968;19.844;2022-08-21T12:53:36;21.00;99.90
20740;DHT22;10530;49.968;19.844;2022-08-21T12:58:53;21.30;99.90
20740;DHT22;10530;49.968;19.844;2022-08-21T13:04:01;21.40;99.90
20740;DHT22;10530;49.968;19.844;2022-08-21T13:09:10;21.10;99.90
20740;DHT22;10530;49.968;19.844;2022-08-21T13:14:23;21.20;99.90
20740;DHT22;10530;49.968;19.844;2022-08-21T13:19:28;20.90;99.90
20740;DHT22;10530;49.968;19.844;2022-08-21T13:24:37;21.30;99.90
20740;DHT22;10530;49.968;19.844;2022-08-21T13:29:44;21.50;99.90
20740;DHT22;10530;49.968;19.844;2022-08-21T13:34:55;21.60;99.90
20740;DHT22;10530;49.968;19.844;2022-08-21T13:39:58;21.30;99.90
20740;DHT22;10530;49.968;19.844;2022-08-21T13:45:00;21.70;99.90
20740;DHT22;10530;49.968;19.844;2022-08-21T13:50:04;21.60;99.90
20740;DHT22;10530;49.968;19.844;2022-08-21T13:55:15;21.60;99.90
20740;DHT22;10530;49.968;19.844;2022-08-21T14:00:26;21.90;99.90
20740;DHT22;10530;49.968;19.844;2022-08-21T14:05:32;21.80;99.90
20740;DHT22;10530;49.968;19.844;2022-08-21T14:10:41;21.60;99.90
20740;DHT22;10530;49.968;19.844;2022-08-21T14:15:57;21.40;99.90
20740;DHT22;10530;49.968;19.844;2022-08-21T14:21:08;21.10;99.90
20740;DHT22;10530;49.968;19.844;2022-08-21T14:26:11;21.00;99.90
20740;DHT22;10530;49.968;19.844;2022-08-21T14:31:18;21.10;99.90
20740;DHT22;10530;49.968;19.844;2022-08-21T14:36:22;21.30;99.90
20740;DHT22;10530;49.968;19.844;2022-08-21T14:41:26;21.10;99.90
20740;DHT22;10530;49.968;19.844;2022-08-21T14:46:32;21.00;99.90
20740;DHT22;10530;49.968;19.844;2022-08-21T14:51:36;20.50;99.90
20740;DHT22;10530;49.968;19.844;2022-08-21T14:56:57;20.00;99.90
20740;DHT22;10530;49.968;19.844;2022-08-21T15:02:01;19.90;99.90
20740;DHT22;10530;49.968;19.844;2022-08-21T15:07:06;19.70;99.90
20740;DHT22;10530;49.968;19.844;2022-08-21T15:12:10;19.50;99.90
20740;DHT22;10530;49.968;19.844;2022-08-21T15:17:14;19.40;99.90
20740;DHT22;10530;49.968;19.844;2022-08-21T15:22:17;19.20;99.90
20740;DHT22;10530;49.968;19.844;2022-08-21T15:27:29;18.90;99.90
20740;DHT22;10530;49.968;19.844;2022-08-21T15:32:32;18.80;99.90
20740;DHT22;10530;49.968;19.844;2022-08-21T15:37:34;18.60;99.90
20740;DHT22;10530;49.968;19.844;2022-08-21T15:42:39;18.60;99.90
20740;DHT22;10530;49.968;19.844;2022-08-21T15:47:43;18.40;99.90
20740;DHT22;10530;49.968;19.844;2022-08-21T15:52:47;18.10;99.90
20740;DHT22;10530;49.968;19.844;2022-08-21T15:57:51;18.00;99.90
20740;DHT22;10530;49.968;19.844;2022-08-21T16:03:00;18.00;99.90
20740;DHT22;10530;49.968;19.844;2022-08-21T16:08:05;17.80;99.90
20740;DHT22;10530;49.968;19.844;2022-08-21T16:13:23;17.70;99.90
20740;DHT22;10530;49.968;19.844;2022-08-21T16:18:27;17.70;99.90
20740;DHT22;10530;49.968;19.844;2022-08-21T16:23:29;17.70;99.90
20740;DHT22;10530;49.968;19.844;2022-08-21T16:28:34;17.60;99.90
20740;DHT22;10530;49.968;19.844;2022-08-21T16:33:42;17.50;99.90
20740;DHT22;10530;49.968;19.844;2022-08-21T16:38:46;17.40;99.90
20740;DHT22;10530;49.968;19.844;2022-08-21T16:43:50;17.40;99.90
20740;DHT22;10530;49.968;19.844;2022-08-21T16:48:53;17.30;99.90
20740;DHT22;10530;49.968;19.844;2022-08-21T16:53:57;17.40;99.90
20740;DHT22;10530;49.968;19.844;2022-08-21T16:59:02;17.30;99.90
20740;DHT22;10530;49.968;19.844;2022-08-21T17:04:06;17.20;99.90
20740;DHT22;10530;49.968;19.844;2022-08-21T17:09:09;17.10;99.90
20740;DHT22;10530;49.968;19.844;2022-08-21T17:14:19;16.80;99.90
20740;DHT22;10530;49.968;19.844;2022-08-21T17:19:22;16.70;99.90
20740;DHT22;10530;49.968;19.844;2022-08-21T17:24:25;16.50;99.90
20740;DHT22;10530;49.968;19.844;2022-08-21T17:29:36;16.50;99.90
20740;DHT22;10530;49.968;19.844;2022-08-21T17:34:40;16.50;99.90
20740;DHT22;10530;49.968;19.844;2022-08-21T17:39:43;16.40;99.90
20740;DHT22;10530;49.968;19.844;2022-08-21T17:44:46;16.40;99.90
20740;DHT22;10530;49.968;19.844;2022-08-21T17:49:49;16.40;99.90
20740;DHT22;10530;49.968;19.844;2022-08-21T17:54:52;16.30;99.90
20740;DHT22;10530;49.968;19.844;2022-08-21T17:59:55;16.30;99.90
20740;DHT22;10530;49.968;19.844;2022-08-21T18:04:59;16.30;99.90
20740;DHT22;10530;49.968;19.844;2022-08-21T18:10:08;16.20;99.90
20740;DHT22;10530;49.968;19.844;2022-08-21T18:15:16;16.20;99.90
20740;DHT22;10530;49.968;19.844;2022-08-21T18:20:21;16.20;99.90
20740;DHT22;10530;49.968;19.844;2022-08-21T18:25:24;16.20;99.90
20740;DHT22;10530;49.968;19.844;2022-08-21T18:30:27;16.30;99.90
20740;DHT22;10530;49.968;19.844;2022-08-21T18:35:30;16.30;99.90
20740;DHT22;10530;49.968;19.844;2022-08-21T18:40:37;16.20;99.90
20740;DHT22;10530;49.968;19.844;2022-08-21T18:45:40;16.20;99.90
20740;DHT22;10530;49.968;19.844;2022-08-21T18:50:45;16.20;99.90
20740;DHT22;10530;49.968;19.844;2022-08-21T18:55:49;16.30;99.90
20740;DHT22;10530;49.968;19.844;2022-08-21T19:00:52;16.30;99.90
20740;DHT22;10530;49.968;19.844;2022-08-21T19:05:57;16.20;99.90
20740;DHT22;10530;49.968;19.844;2022-08-21T19:11:00;16.20;99.90
20740;DHT22;10530;49.968;19.844;2022-08-21T19:16:05;16.20;99.90
20740;DHT22;10530;49.968;19.844;2022-08-21T19:21:10;16.20;99.90
20740;DHT22;10530;49.968;19.844;2022-08-21T19:26:15;16.20;99.90
20740;DHT22;10530;49.968;19.844;2022-08-21T19:31:21;16.20;99.90
20740;DHT22;10530;49.968;19.844;2022-08-21T19:36:25;16.10;99.90
20740;DHT22;10530;49.968;19.844;2022-08-21T19:41:31;16.10;99.90
20740;DHT22;10530;49.968;19.844;2022-08-21T19:46:37;16.10;99.90
20740;DHT22;10530;49.968;19.844;2022-08-21T19:51:42;16.00;99.90
20740;DHT22;10530;49.968;19.844;2022-08-21T19:56:45;16.00;99.90
20740;DHT22;10530;49.968;19.844;2022-08-21T20:01:49;16.10;99.90
20740;DHT22;10530;49.968;19.844;2022-08-21T20:06:52;16.00;99.90
20740;DHT22;10530;49.968;19.844;2022-08-21T20:11:57;16.00;99.90
20740;DHT22;10530;49.968;19.844;2022-08-21T20:17:11;16.00;99.90
20740;DHT22;10530;49.968;19.844;2022-08-21T20:22:14;16.00;99.90
20740;DHT22;10530;49.968;19.844;2022-08-21T20:27:23;16.00;99.90
20740;DHT22;10530;49.968;19.844;2022-08-21T20:32:26;15.90;99.90
20740;DHT22;10530;49.968;19.844;2022-08-21T20:37:29;15.90;99.90
20740;DHT22;10530;49.968;19.844;2022-08-21T20:42:40;16.00;99.90
20740;DHT22;10530;49.968;19.844;2022-08-21T20:48:09;15.90;99.90
20740;DHT22;10530;49.968;19.844;2022-08-21T20:58:56;16.00;99.90
20740;DHT22;10530;49.968;19.844;2022-08-21T21:04:23;16.00;99.90
20740;DHT22;10530;49.968;19.844;2022-08-21T21:09:43;16.00;99.90
20740;DHT22;10530;49.968;19.844;2022-08-21T21:14:53;15.90;99.90
20740;DHT22;10530;49.968;19.844;2022-08-21T21:20:10;16.00;99.90
20740;DHT22;10530;49.968;19.844;2022-08-21T21:25:33;16.00;99.90
20740;DHT22;10530;49.968;19.844;2022-08-21T21:30:44;16.10;99.90
20740;DHT22;10530;49.968;19.844;2022-08-21T21:35:58;16.00;99.90
20740;DHT22;10530;49.968;19.844;2022-08-21T21:41:33;16.10;99.90
20740;DHT22;10530;49.968;19.844;2022-08-21T21:57:56;16.00;99.90
20740;DHT22;10530;49.968;19.844;2022-08-21T22:03:18;16.10;99.90
20740;DHT22;10530;49.968;19.844;2022-08-21T22:08:42;16.10;99.90
20740;DHT22;10530;49.968;19.844;2022-08-21T22:19:01;16.10;99.90
20740;DHT22;10530;49.968;19.844;2022-08-21T22:24:35;16.10;99.90
20740;DHT22;10530;49.968;19.844;2022-08-21T22:29:56;16.10;99.90
20740;DHT22;10530;49.968;19.844;2022-08-21T22:35:13;16.10;99.90
20740;DHT22;10530;49.968;19.844;2022-08-21T22:40:27;16.20;99.90
20740;DHT22;10530;49.968;19.844;2022-08-21T22:45:49;16.10;99.90
20740;DHT22;10530;49.968;19.844;2022-08-21T22:51:03;16.10;99.90
20740;DHT22;10530;49.968;19.844;2022-08-21T22:56:08;16.10;99.90
20740;DHT22;10530;49.968;19.844;2022-08-21T23:01:30;16.10;99.90
20740;DHT22;10530;49.968;19.844;2022-08-21T23:12:38;16.10;99.90
20740;DHT22;10530;49.968;19.844;2022-08-21T23:18:06;16.20;99.90
20740;DHT22;10530;49.968;19.844;2022-08-21T23:23:28;16.10;99.90
20740;DHT22;10530;49.968;19.844;2022-08-21T23:39:38;16.20;99.90
20740;DHT22;10530;49.968;19.844;2022-08-21T23:44:56;16.20;99.90
20740;DHT22;10530;49.968;19.844;2022-08-21T23:50:25;16.20;99.90
